Time;durP1;ratioP1;P1;durP2;ratioP2;P2;SDS_P1;SDS_P2;PMS_P1;PMS_P2;Temp;Humidity;BMP_temperature;BMP_pressure;BME280_temperature;BME280_humidity;BME280_pressure;Samples;Min_cycle;Max_cycle;Signal;HPM_P1;HPM_P2
2020/12/20 00:01:42;;;;;;;98.40;44.45;;;;;;;;;;4963363;28;20074;-72
2020/12/20 00:04:09;;;;;;;103.40;43.95;;;;;;;;;;4965175;28;20530;-72
2020/12/20 00:06:36;;;;;;;;;;;;;;;;;;4961308;28;20047;-72
2020/12/20 00:09:14;;;;;;;106.25;44.38;;;;;;;;;;4968069;28;20371;-72
2020/12/20 00:11:41;;;;;;;100.88;42.97;;;;;;;;;;4963151;28;20043;-72
2020/12/20 00:16:58;;;;;;;109.38;45.63;;;;;;;;;;4957879;28;20063;-72
2020/12/20 00:19:25;;;;;;;111.40;47.58;;;;;;;;;;4964273;28;20031;-72
2020/12/20 00:21:55;;;;;;;102.65;45.13;;;;;;;;;;4970599;28;20057;-72
2020/12/20 00:24:21;;;;;;;108.45;46.67;;;;;;;;;;4967789;28;20043;-72
2020/12/20 00:26:48;;;;;;;114.95;48.25;;;;;;;;;;4966221;28;20057;-72
2020/12/20 00:29:14;;;;;;;112.65;44.95;;;;;;;;;;4966039;28;20043;-72
2020/12/20 00:31:40;;;;;;;113.03;49.15;;;;;;;;;;4972123;28;20125;-72
2020/12/20 00:34:07;;;;;;;115.22;46.60;;;;;;;;;;4949127;28;20377;-72
2020/12/20 00:36:33;;;;;;;114.10;47.47;;;;;;;;;;4967741;28;20042;-72
2020/12/20 00:39:00;;;;;;;116.65;50.40;;;;;;;;;;4968172;28;20052;-72
2020/12/20 00:41:27;;;;;;;113.88;46.97;;;;;;;;;;4964459;28;20424;-72
2020/12/20 00:43:53;;;;;;;108.93;46.50;;;;;;;;;;4968530;28;20454;-72
2020/12/20 00:46:19;;;;;;;100.10;44.47;;;;;;;;;;4939491;28;20397;-72
2020/12/20 00:48:45;;;;;;;116.55;45.85;;;;;;;;;;4960465;28;20042;-72
2020/12/20 00:51:12;;;;;;;93.32;42.67;;;;;;;;;;4944593;28;20578;-73
2020/12/20 00:53:38;;;;;;;95.38;41.60;;;;;;;;;;4944939;28;20039;-73
2020/12/20 00:56:11;;;;;;;88.60;41.28;;;;;;;;;;4942023;28;20065;-73
2020/12/20 00:58:37;;;;;;;90.68;39.75;;;;;;;;;;4945380;28;20053;-72
2020/12/20 01:01:04;;;;;;;97.85;40.00;;;;;;;;;;4937666;28;20136;-73
2020/12/20 01:03:30;;;;;;;92.90;38.65;;;;;;;;;;4944599;28;20031;-73
2020/12/20 01:05:56;;;;;;;88.00;37.55;;;;;;;;;;4941827;28;20050;-72
2020/12/20 01:08:24;;;;;;;94.95;38.88;;;;;;;;;;4946576;28;20039;-72
2020/12/20 01:10:50;;;;;;;;;;;;;;;;;;4963213;28;20054;-73
2020/12/20 01:13:17;;;;;;;68.47;32.22;;;;;;;;;;4950071;28;19928;-73
2020/12/20 01:15:43;;;;;;;76.07;35.10;;;;;;;;;;4963013;28;20442;-73
2020/12/20 01:18:09;;;;;;;81.43;35.08;;;;;;;;;;4947051;28;20090;-73
2020/12/20 01:20:36;;;;;;;65.88;31.50;;;;;;;;;;4948786;28;20137;-73
2020/12/20 01:23:02;;;;;;;72.88;33.50;;;;;;;;;;4964379;28;20038;-73
2020/12/20 01:25:28;;;;;;;78.22;33.65;;;;;;;;;;4945144;28;20047;-73
2020/12/20 01:28:05;;;;;;;64.03;31.77;;;;;;;;;;4950102;28;20592;-73
2020/12/20 01:30:37;;;;;;;65.78;30.58;;;;;;;;;;4948726;28;20042;-73
2020/12/20 01:33:03;;;;;;;66.53;30.42;;;;;;;;;;4967924;28;20454;-73
2020/12/20 01:35:35;;;;;;;60.10;28.92;;;;;;;;;;4943162;28;20043;-74
2020/12/20 01:38:02;;;;;;;55.83;28.15;;;;;;;;;;4947126;28;20105;-74
2020/12/20 01:40:29;;;;;;;61.58;27.90;;;;;;;;;;4947894;28;20107;-74
2020/12/20 01:42:56;;;;;;;62.23;28.47;;;;;;;;;;4952733;28;20039;-74
2020/12/20 01:45:28;;;;;;;65.88;28.02;;;;;;;;;;4952604;28;20142;-74
2020/12/20 01:47:55;;;;;;;60.60;27.37;;;;;;;;;;4961583;28;20051;-74
2020/12/20 01:50:22;;;;;;;55.60;25.23;;;;;;;;;;4953383;28;20389;-75
2020/12/20 01:52:53;;;;;;;56.72;26.27;;;;;;;;;;4968205;28;20063;-75
2020/12/20 01:55:21;;;;;;;;;;;;;;;;;;4941684;29;20057;-75
2020/12/20 01:57:56;;;;;;;52.35;24.17;;;;;;;;;;4973447;28;19922;-75
2020/12/20 02:00:45;;;;;;;49.33;22.80;;;;;;;;;;4960941;28;20114;-74
2020/12/20 02:03:44;;;;;;;40.85;20.88;;;;;;;;;;4943894;28;20614;-74
2020/12/20 02:06:18;;;;;;;43.05;21.15;;;;;;;;;;4950422;28;20062;-74
2020/12/20 02:08:53;;;;;;;40.97;20.02;;;;;;;;;;4941420;28;20106;-75
2020/12/20 02:11:20;;;;;;;41.45;20.40;;;;;;;;;;4944665;28;20062;-75
2020/12/20 02:13:51;;;;;;;35.72;18.92;;;;;;;;;;4946194;28;20043;-75
2020/12/20 02:16:23;;;;;;;37.35;18.40;;;;;;;;;;4944502;28;20164;-75
2020/12/20 02:18:50;;;;;;;34.35;17.90;;;;;;;;;;4949334;28;20058;-75
2020/12/20 02:21:17;;;;;;;32.05;17.40;;;;;;;;;;4946125;28;20050;-75
2020/12/20 02:23:50;;;;;;;38.05;18.17;;;;;;;;;;4950101;28;20089;-75
2020/12/20 02:26:21;;;;;;;29.58;16.08;;;;;;;;;;4949426;28;20141;-75
2020/12/20 02:28:48;;;;;;;;;;;;;;;;;;4952675;28;20079;-75
2020/12/20 02:31:18;;;;;;;28.23;15.05;;;;;;;;;;4949027;28;19977;-75
2020/12/20 02:33:44;;;;;;;31.37;14.87;;;;;;;;;;4952232;28;20045;-75
2020/12/20 02:36:11;;;;;;;25.80;14.70;;;;;;;;;;4970759;28;20042;-76
2020/12/20 02:38:40;;;;;;;28.58;14.02;;;;;;;;;;4954776;28;20067;-74
2020/12/20 02:41:16;;;;;;;25.80;14.02;;;;;;;;;;4952481;28;20489;-75
2020/12/20 02:43:43;;;;;;;25.45;13.02;;;;;;;;;;4954032;28;20054;-75
2020/12/20 02:46:15;;;;;;;21.17;12.38;;;;;;;;;;4946379;28;20418;-75
2020/12/20 02:48:48;;;;;;;24.95;13.20;;;;;;;;;;4955878;28;20047;-75
2020/12/20 02:51:14;;;;;;;24.55;12.45;;;;;;;;;;4964489;28;20043;-75
2020/12/20 02:53:41;;;;;;;25.00;13.38;;;;;;;;;;4946210;29;20077;-75
2020/12/20 02:56:10;;;;;;;23.60;12.18;;;;;;;;;;4970989;28;20720;-75
2020/12/20 02:58:37;;;;;;;21.17;12.60;;;;;;;;;;4968963;28;20099;-75
2020/12/20 03:01:12;;;;;;;24.15;13.15;;;;;;;;;;4945759;29;20141;-75
2020/12/20 03:03:39;;;;;;;29.08;14.88;;;;;;;;;;4947506;28;20042;-75
2020/12/20 03:06:06;;;;;;;29.33;14.33;;;;;;;;;;4944646;28;20046;-75
2020/12/20 03:08:34;;;;;;;33.83;15.38;;;;;;;;;;4946875;29;20058;-75
2020/12/20 03:11:01;;;;;;;32.67;15.18;;;;;;;;;;4932982;29;20046;-75
2020/12/20 03:13:30;;;;;;;31.77;15.48;;;;;;;;;;4936298;28;20046;-75
2020/12/20 03:15:57;;;;;;;36.00;18.13;;;;;;;;;;4934219;29;20051;-75
2020/12/20 03:18:29;;;;;;;30.40;16.83;;;;;;;;;;4937474;29;20121;-75
2020/12/20 03:20:57;;;;;;;38.28;16.85;;;;;;;;;;4945042;29;20527;-75
2020/12/20 03:23:26;;;;;;;42.50;19.52;;;;;;;;;;4932576;29;20043;-74
2020/12/20 03:26:15;;;;;;;;;;;;;;;;;;4937604;29;20529;-75
2020/12/20 03:29:17;;;;;;;51.78;20.98;;;;;;;;;;4893906;29;19942;-75
2020/12/20 03:32:08;;;;;;;44.63;19.45;;;;;;;;;;4926026;29;20428;-75
2020/12/20 03:34:48;;;;;;;49.65;22.13;;;;;;;;;;4932208;29;20528;-75
2020/12/20 03:37:21;;;;;;;48.83;22.10;;;;;;;;;;4947612;28;20046;-75
2020/12/20 03:39:56;;;;;;;52.40;20.85;;;;;;;;;;4925542;29;20044;-75
2020/12/20 03:42:24;;;;;;;59.00;22.92;;;;;;;;;;4935263;29;20569;-75
2020/12/20 03:44:51;;;;;;;54.55;22.77;;;;;;;;;;4932595;29;20057;-75
2020/12/20 03:47:19;;;;;;;50.38;21.85;;;;;;;;;;4932523;28;20208;-75
2020/12/20 03:49:46;;;;;;;56.35;21.77;;;;;;;;;;4920096;29;20445;-75
2020/12/20 03:52:13;;;;;;;54.27;21.43;;;;;;;;;;4931987;29;20039;-75
2020/12/20 03:54:53;;;;;;;57.47;23.23;;;;;;;;;;4941257;28;20082;-75
2020/12/20 03:57:21;;;;;;;61.88;24.35;;;;;;;;;;4939735;29;20043;-75
2020/12/20 03:59:48;;;;;;;80.00;26.45;;;;;;;;;;4931856;29;20054;-75
2020/12/20 04:02:15;;;;;;;71.38;27.27;;;;;;;;;;4922349;29;20059;-75
2020/12/20 04:04:42;;;;;;;80.00;27.83;;;;;;;;;;4929983;29;20431;-74
2020/12/20 04:07:08;;;;;;;79.22;27.77;;;;;;;;;;4932170;29;20043;-75
2020/12/20 04:09:40;;;;;;;78.28;28.27;;;;;;;;;;4929015;29;20632;-75
2020/12/20 04:12:20;;;;;;;73.70;27.30;;;;;;;;;;4935285;29;20054;-75
2020/12/20 04:14:48;;;;;;;95.32;32.20;;;;;;;;;;4936278;29;20051;-75
2020/12/20 04:17:14;;;;;;;92.88;32.30;;;;;;;;;;4936666;29;20134;-75
2020/12/20 04:19:40;;;;;;;87.32;32.70;;;;;;;;;;4952339;29;20047;-74
2020/12/20 04:22:19;;;;;;;82.78;31.77;;;;;;;;;;4926810;29;20507;-74
2020/12/20 04:25:06;;;;;;;93.88;31.92;;;;;;;;;;4950384;29;20614;-75
2020/12/20 04:27:48;;;;;;;96.35;34.70;;;;;;;;;;4930640;29;20535;-75
2020/12/20 04:30:15;;;;;;;90.63;34.85;;;;;;;;;;4929230;29;20098;-75
2020/12/20 04:32:41;;;;;;;88.20;34.10;;;;;;;;;;4926853;29;20050;-75
2020/12/20 04:35:11;;;;;;;89.82;36.17;;;;;;;;;;4933667;29;20043;-74
2020/12/20 04:37:39;;;;;;;93.68;35.17;;;;;;;;;;4931435;29;20058;-74
2020/12/20 04:40:18;;;;;;;97.40;36.53;;;;;;;;;;4934229;28;20578;-74
2020/12/20 04:42:50;;;;;;;97.13;37.70;;;;;;;;;;4936452;29;20111;-74
2020/12/20 04:45:17;;;;;;;87.15;35.97;;;;;;;;;;4928530;29;20502;-74
2020/12/20 04:47:51;;;;;;;95.57;37.78;;;;;;;;;;4932572;29;20050;-74
2020/12/20 04:50:21;;;;;;;91.03;38.50;;;;;;;;;;4933694;29;20125;-74
2020/12/20 04:52:49;;;;;;;92.38;38.25;;;;;;;;;;4922800;28;20090;-74
2020/12/20 04:55:30;;;;;;;96.32;38.75;;;;;;;;;;4930446;29;20047;-74
2020/12/20 04:58:20;;;;;;;92.28;35.72;;;;;;;;;;4948337;29;20511;-75
2020/12/20 05:00:47;;;;;;;90.60;36.97;;;;;;;;;;4935232;28;20486;-74
2020/12/20 05:03:16;;;;;;;98.15;40.08;;;;;;;;;;4935242;29;20466;-74
2020/12/20 05:05:48;;;;;;;93.45;38.30;;;;;;;;;;4926732;29;20082;-74
2020/12/20 05:08:14;;;;;;;92.00;39.15;;;;;;;;;;4943801;28;20050;-74
2020/12/20 05:10:41;;;;;;;103.20;40.25;;;;;;;;;;4945543;28;20153;-74
2020/12/20 05:13:09;;;;;;;92.03;37.88;;;;;;;;;;4949062;28;20038;-74
2020/12/20 05:15:37;;;;;;;;;;;;;;;;;;4953783;28;20459;-74
2020/12/20 05:18:29;;;;;;;102.03;39.38;;;;;;;;;;4959300;28;19922;-74
2020/12/20 05:21:07;;;;;;;100.00;39.15;;;;;;;;;;4946189;28;20074;-74
2020/12/20 05:23:34;;;;;;;101.70;40.22;;;;;;;;;;4945188;28;20051;-74
2020/12/20 05:26:24;;;;;;;102.93;40.05;;;;;;;;;;4944150;28;20051;-74
2020/12/20 05:28:51;;;;;;;98.45;39.97;;;;;;;;;;4962588;28;20090;-74
2020/12/20 05:31:17;;;;;;;97.30;39.53;;;;;;;;;;4954516;28;20455;-75
2020/12/20 05:33:49;;;;;;;98.35;40.58;;;;;;;;;;4954257;28;20055;-74
2020/12/20 05:36:33;;;;;;;90.70;37.92;;;;;;;;;;4947321;28;20055;-74
2020/12/20 05:39:17;;;;;;;99.15;40.72;;;;;;;;;;4952544;28;20046;-74
2020/12/20 05:41:53;;;;;;;93.45;40.45;;;;;;;;;;4946259;28;20510;-74
2020/12/20 05:44:23;;;;;;;85.47;39.95;;;;;;;;;;4946111;28;20466;-74
2020/12/20 05:46:55;;;;;;;96.35;39.97;;;;;;;;;;4941375;28;20143;-74
2020/12/20 05:49:23;;;;;;;88.68;39.35;;;;;;;;;;4940743;29;20126;-74
2020/12/20 05:52:01;;;;;;;96.10;42.22;;;;;;;;;;4951400;28;20047;-75
2020/12/20 05:54:31;;;;;;;99.50;41.40;;;;;;;;;;4965959;28;20462;-74
2020/12/20 05:57:04;;;;;;;96.93;40.30;;;;;;;;;;4965202;28;20039;-74
2020/12/20 05:59:31;;;;;;;97.97;40.67;;;;;;;;;;4960377;28;20046;-75
2020/12/20 06:01:57;;;;;;;85.53;40.13;;;;;;;;;;4962101;28;20047;-74
2020/12/20 06:04:24;;;;;;;94.38;39.08;;;;;;;;;;4963147;28;20039;-74
2020/12/20 06:06:51;;;;;;;95.15;41.15;;;;;;;;;;4959833;28;20130;-75
2020/12/20 06:09:21;;;;;;;93.72;41.40;;;;;;;;;;4957558;28;20055;-74
2020/12/20 06:11:48;;;;;;;97.25;40.33;;;;;;;;;;4964732;28;20066;-74
2020/12/20 06:14:17;;;;;;;91.97;39.47;;;;;;;;;;4952932;28;20070;-74
2020/12/20 06:16:43;;;;;;;91.47;40.00;;;;;;;;;;4966042;28;20043;-74
2020/12/20 06:19:10;;;;;;;88.90;38.75;;;;;;;;;;4960988;28;20114;-74
2020/12/20 06:22:06;;;;;;;103.53;41.10;;;;;;;;;;4961458;28;20078;-75
2020/12/20 06:24:35;;;;;;;89.57;40.15;;;;;;;;;;4944553;28;20082;-74
2020/12/20 06:27:02;;;;;;;101.05;41.85;;;;;;;;;;4964454;28;20126;-74
2020/12/20 06:29:29;;;;;;;91.20;40.58;;;;;;;;;;4964545;28;20050;-74
2020/12/20 06:31:56;;;;;;;88.50;40.05;;;;;;;;;;4966397;28;20043;-74
2020/12/20 06:34:22;;;;;;;83.60;39.97;;;;;;;;;;4961024;28;20107;-75
2020/12/20 06:36:49;;;;;;;87.28;39.05;;;;;;;;;;4967110;28;20046;-74
2020/12/20 06:39:34;;;;;;;93.15;40.83;;;;;;;;;;4965463;28;20114;-74
2020/12/20 06:42:01;;;;;;;90.65;39.60;;;;;;;;;;4964813;28;20082;-75
2020/12/20 06:44:27;;;;;;;91.60;40.08;;;;;;;;;;4969212;28;20043;-74
2020/12/20 06:46:53;;;;;;;95.72;39.30;;;;;;;;;;4962856;28;20039;-74
2020/12/20 06:49:52;;;;;;;95.22;39.42;;;;;;;;;;4955710;28;20396;-74
2020/12/20 06:52:27;;;;;;;86.82;39.03;;;;;;;;;;4907690;28;20055;-74
2020/12/20 06:55:00;;;;;;;104.10;39.85;;;;;;;;;;4965940;28;20058;-74
2020/12/20 06:57:27;;;;;;;101.65;40.65;;;;;;;;;;4970088;28;20041;-75
2020/12/20 06:59:53;;;;;;;95.22;38.75;;;;;;;;;;4971534;28;20053;-75
2020/12/20 07:02:38;;;;;;;92.65;37.97;;;;;;;;;;4968721;28;20061;-75
2020/12/20 07:05:04;;;;;;;89.18;38.63;;;;;;;;;;4967033;28;20055;-74
2020/12/20 07:07:30;;;;;;;91.45;38.40;;;;;;;;;;4974740;28;20038;-74
2020/12/20 07:09:57;;;;;;;92.47;39.88;;;;;;;;;;4962855;28;20418;-74
2020/12/20 07:12:43;;;;;;;94.77;40.70;;;;;;;;;;4970052;28;20125;-74
2020/12/20 07:15:30;;;;;;;83.25;38.97;;;;;;;;;;4968272;28;20314;-74
2020/12/20 07:17:56;;;;;;;93.55;40.70;;;;;;;;;;4972710;28;20051;-74
2020/12/20 07:20:32;;;;;;;81.85;37.05;;;;;;;;;;4970880;28;20050;-75
2020/12/20 07:22:59;;;;;;;92.20;36.80;;;;;;;;;;4967829;28;20065;-75
2020/12/20 07:25:26;;;;;;;81.10;37.63;;;;;;;;;;4969861;28;20038;-74
2020/12/20 07:27:52;;;;;;;;;;;;;;;;;;4963694;28;20054;-74
2020/12/20 07:30:18;;;;;;;84.72;36.70;;;;;;;;;;4963053;28;20022;-74
2020/12/20 07:32:45;;;;;;;87.82;35.55;;;;;;;;;;4965995;28;20074;-74
2020/12/20 07:35:14;;;;;;;90.18;37.53;;;;;;;;;;4967860;28;20039;-74
2020/12/20 07:37:52;;;;;;;92.97;39.97;;;;;;;;;;4961464;28;20051;-74
2020/12/20 07:40:19;;;;;;;89.10;38.50;;;;;;;;;;4960770;28;20047;-74
2020/12/20 07:42:45;;;;;;;75.03;32.30;;;;;;;;;;4956759;28;20051;-74
2020/12/20 07:45:12;;;;;;;87.70;36.15;;;;;;;;;;4966622;28;20051;-74
2020/12/20 07:47:39;;;;;;;85.22;35.25;;;;;;;;;;4971425;28;20435;-74
2020/12/20 07:50:05;;;;;;;83.40;35.60;;;;;;;;;;4967992;28;20043;-74
2020/12/20 07:52:31;;;;;;;80.05;36.05;;;;;;;;;;4961638;28;20095;-74
2020/12/20 07:54:58;;;;;;;81.72;35.80;;;;;;;;;;4968218;28;20502;-74
2020/12/20 07:57:24;;;;;;;77.70;35.63;;;;;;;;;;4940023;28;20051;-74
2020/12/20 08:00:01;;;;;;;79.25;35.92;;;;;;;;;;4958200;28;20051;-74
2020/12/20 08:02:27;;;;;;;85.22;35.95;;;;;;;;;;4967821;28;20109;-74
2020/12/20 08:05:02;;;;;;;86.70;37.15;;;;;;;;;;4968746;28;20118;-74
2020/12/20 08:07:29;;;;;;;88.47;35.30;;;;;;;;;;4955436;28;20047;-75
2020/12/20 08:09:55;;;;;;;79.40;35.65;;;;;;;;;;4961028;28;20130;-74
2020/12/20 08:12:21;;;;;;;92.85;35.35;;;;;;;;;;4965353;28;20039;-74
2020/12/20 08:14:47;;;;;;;83.85;36.22;;;;;;;;;;4963780;28;20102;-74
2020/12/20 08:17:19;;;;;;;84.68;36.83;;;;;;;;;;4964197;28;20043;-74
2020/12/20 08:19:45;;;;;;;81.82;34.30;;;;;;;;;;4962514;28;20039;-74
2020/12/20 08:22:13;;;;;;;86.22;35.15;;;;;;;;;;4965528;28;20067;-74
2020/12/20 08:24:39;;;;;;;;;;;;;;;;;;4965473;28;20039;-74
2020/12/20 08:27:11;;;;;;;75.10;34.33;;;;;;;;;;4968403;28;20064;-74
2020/12/20 08:29:38;;;;;;;72.18;34.33;;;;;;;;;;4970161;28;20533;-74
2020/12/20 08:32:11;;;;;;;76.25;34.00;;;;;;;;;;4970236;28;20450;-74
2020/12/20 08:34:38;;;;;;;68.32;32.00;;;;;;;;;;4968678;28;20039;-74
2020/12/20 08:37:08;;;;;;;67.93;31.02;;;;;;;;;;4967912;28;20130;-74
2020/12/20 08:39:34;;;;;;;73.10;32.65;;;;;;;;;;4970893;28;20047;-74
2020/12/20 08:42:05;;;;;;;75.20;32.60;;;;;;;;;;4971570;28;20097;-74
2020/12/20 08:44:31;;;;;;;68.35;31.40;;;;;;;;;;4968411;28;20099;-74
2020/12/20 08:47:08;;;;;;;77.00;32.63;;;;;;;;;;4965146;28;20051;-74
2020/12/20 08:49:35;;;;;;;65.22;30.92;;;;;;;;;;4968845;28;20400;-74
2020/12/20 08:52:05;;;;;;;72.75;31.40;;;;;;;;;;4965319;28;20402;-74
2020/12/20 08:54:31;;;;;;;76.25;33.20;;;;;;;;;;4969187;28;20046;-74
2020/12/20 08:57:08;;;;;;;67.53;31.08;;;;;;;;;;4953586;28;20423;-74
2020/12/20 08:59:35;;;;;;;68.55;32.65;;;;;;;;;;4970677;28;20474;-74
2020/12/20 09:02:03;;;;;;;80.63;33.05;;;;;;;;;;4969245;28;20065;-74
2020/12/20 09:04:29;;;;;;;73.93;32.30;;;;;;;;;;4966346;28;20113;-75
2020/12/20 09:07:16;;;;;;;66.50;31.08;;;;;;;;;;4963148;28;20049;-75
2020/12/20 09:09:42;;;;;;;64.85;30.80;;;;;;;;;;4966578;28;20046;-74
2020/12/20 09:12:13;;;;;;;70.82;32.63;;;;;;;;;;4964508;28;20435;-74
2020/12/20 09:14:40;;;;;;;67.22;29.42;;;;;;;;;;4968548;28;20086;-74
2020/12/20 09:17:06;;;;;;;63.75;29.80;;;;;;;;;;4958060;28;20495;-74
2020/12/20 09:19:32;;;;;;;67.53;30.58;;;;;;;;;;4958185;28;20100;-74
2020/12/20 09:21:58;;;;;;;59.50;30.50;;;;;;;;;;4946046;28;20051;-74
2020/12/20 09:24:47;;;;;;;62.58;32.75;;;;;;;;;;4962347;28;20497;-74
2020/12/20 09:27:13;;;;;;;67.03;33.13;;;;;;;;;;4960103;28;20063;-74
2020/12/20 09:29:49;;;;;;;70.72;33.85;;;;;;;;;;4965170;28;20055;-74
2020/12/20 09:32:15;;;;;;;68.15;33.13;;;;;;;;;;4962303;28;20039;-74
2020/12/20 09:34:41;;;;;;;68.10;29.42;;;;;;;;;;4963188;28;20121;-74
2020/12/20 09:37:07;;;;;;;54.58;29.58;;;;;;;;;;4939398;28;20047;-74
2020/12/20 09:39:53;;;;;;;62.20;30.23;;;;;;;;;;4967399;28;20046;-74
2020/12/20 09:42:20;;;;;;;59.88;30.23;;;;;;;;;;4959825;28;20086;-74
2020/12/20 09:44:46;;;;;;;63.25;29.85;;;;;;;;;;4966476;28;20047;-74
2020/12/20 09:47:16;;;;;;;60.00;28.63;;;;;;;;;;4967183;28;20551;-75
2020/12/20 09:49:42;;;;;;;56.83;28.90;;;;;;;;;;4965951;28;20050;-74
2020/12/20 09:52:08;;;;;;;67.78;30.20;;;;;;;;;;4963000;28;20042;-75
2020/12/20 09:54:34;;;;;;;55.88;27.90;;;;;;;;;;4962532;28;20127;-75
2020/12/20 09:57:00;;;;;;;65.15;28.40;;;;;;;;;;4964589;28;20066;-75
2020/12/20 09:59:27;;;;;;;62.05;27.83;;;;;;;;;;4970904;28;20041;-75
2020/12/20 10:01:53;;;;;;;65.25;28.67;;;;;;;;;;4968769;28;20446;-75
2020/12/20 10:04:19;;;;;;;56.22;27.77;;;;;;;;;;4967667;28;20049;-75
2020/12/20 10:06:46;;;;;;;66.22;28.95;;;;;;;;;;4962526;28;20046;-74
2020/12/20 10:09:12;;;;;;;59.85;30.13;;;;;;;;;;4965506;28;20070;-74
2020/12/20 10:11:39;;;;;;;68.97;28.42;;;;;;;;;;4965039;28;20039;-74
2020/12/20 10:14:05;;;;;;;62.00;28.15;;;;;;;;;;4968126;28;20114;-74
2020/12/20 10:16:31;;;;;;;62.30;28.73;;;;;;;;;;4970505;28;20042;-74
2020/12/20 10:18:57;;;;;;;68.32;28.02;;;;;;;;;;4962371;28;20577;-73
2020/12/20 10:21:23;;;;;;;56.40;27.92;;;;;;;;;;4963691;28;20495;-73
2020/12/20 10:23:49;;;;;;;58.30;28.60;;;;;;;;;;4959707;28;20066;-74
2020/12/20 10:26:16;;;;;;;65.22;28.67;;;;;;;;;;4966212;28;20081;-74
2020/12/20 10:28:42;;;;;;;58.60;27.08;;;;;;;;;;4962442;28;20045;-74
2020/12/20 10:31:08;;;;;;;57.65;26.95;;;;;;;;;;4968277;28;20394;-74
2020/12/20 10:33:37;;;;;;;59.15;26.77;;;;;;;;;;4967169;28;20106;-73
2020/12/20 10:36:03;;;;;;;56.88;27.77;;;;;;;;;;4968811;28;20049;-73
2020/12/20 10:38:29;;;;;;;59.90;27.02;;;;;;;;;;4970107;28;20050;-73
2020/12/20 10:40:56;;;;;;;56.20;26.73;;;;;;;;;;4974517;28;20054;-73
2020/12/20 10:43:22;;;;;;;64.35;26.60;;;;;;;;;;4970301;28;20065;-74
2020/12/20 10:45:49;;;;;;;51.67;25.52;;;;;;;;;;4970089;28;20119;-73
2020/12/20 10:48:15;;;;;;;55.72;25.98;;;;;;;;;;4949824;28;20042;-73
2020/12/20 10:50:41;;;;;;;53.60;25.63;;;;;;;;;;4961946;28;20726;-73
2020/12/20 10:53:07;;;;;;;48.15;25.33;;;;;;;;;;4963965;28;20122;-73
2020/12/20 10:55:36;;;;;;;62.88;26.60;;;;;;;;;;4964724;28;20054;-73
2020/12/20 10:58:02;;;;;;;58.38;26.80;;;;;;;;;;4964619;28;20050;-73
2020/12/20 11:00:28;;;;;;;49.83;25.33;;;;;;;;;;4965673;28;20148;-73
2020/12/20 11:02:54;;;;;;;57.40;25.77;;;;;;;;;;4962794;28;20110;-73
2020/12/20 11:05:25;;;;;;;60.38;28.60;;;;;;;;;;4961518;28;20535;-73
2020/12/20 11:07:52;;;;;;;51.63;25.70;;;;;;;;;;4961939;28;20038;-73
2020/12/20 11:10:18;;;;;;;52.88;25.08;;;;;;;;;;4962510;28;20529;-73
2020/12/20 11:12:44;;;;;;;60.22;28.35;;;;;;;;;;4965334;28;20102;-73
2020/12/20 11:15:10;;;;;;;64.72;27.85;;;;;;;;;;4966368;28;20118;-73
2020/12/20 11:17:36;;;;;;;54.47;25.77;;;;;;;;;;4962521;28;20107;-73
2020/12/20 11:20:03;;;;;;;60.22;27.40;;;;;;;;;;4948533;28;20041;-73
2020/12/20 11:22:29;;;;;;;58.55;26.83;;;;;;;;;;4964225;28;20054;-73
2020/12/20 11:24:55;;;;;;;57.97;26.33;;;;;;;;;;4961766;28;20057;-73
2020/12/20 11:27:21;;;;;;;50.30;26.02;;;;;;;;;;4965280;28;20086;-73
2020/12/20 11:29:47;;;;;;;51.83;25.20;;;;;;;;;;4963421;28;20430;-73
2020/12/20 11:32:14;;;;;;;56.58;26.23;;;;;;;;;;4964447;28;20449;-73
2020/12/20 11:34:40;;;;;;;51.13;25.50;;;;;;;;;;4964467;28;20577;-73
2020/12/20 11:37:07;;;;;;;55.85;26.35;;;;;;;;;;4959363;28;20045;-73
2020/12/20 11:39:33;;;;;;;62.97;25.67;;;;;;;;;;4967678;28;20121;-73
2020/12/20 11:41:59;;;;;;;51.97;24.05;;;;;;;;;;4965639;28;20046;-73
2020/12/20 11:44:26;;;;;;;52.47;24.92;;;;;;;;;;4968668;28;20035;-73
2020/12/20 11:46:52;;;;;;;43.13;24.88;;;;;;;;;;4971663;28;20776;-73
2020/12/20 11:49:18;;;;;;;49.65;23.77;;;;;;;;;;4970931;28;20126;-73
2020/12/20 11:51:45;;;;;;;53.97;23.50;;;;;;;;;;4965427;28;20063;-73
2020/12/20 11:54:11;;;;;;;51.57;24.43;;;;;;;;;;4964725;28;20079;-73
2020/12/20 11:56:37;;;;;;;51.75;25.27;;;;;;;;;;4964959;28;20066;-73
2020/12/20 11:59:03;;;;;;;53.63;24.58;;;;;;;;;;4962774;28;20039;-73
2020/12/20 12:01:30;;;;;;;50.05;23.33;;;;;;;;;;4962840;28;20574;-73
2020/12/20 12:03:57;;;;;;;49.22;23.23;;;;;;;;;;4959238;28;20031;-73
2020/12/20 12:06:23;;;;;;;50.55;22.15;;;;;;;;;;4959230;28;20038;-73
2020/12/20 12:08:49;;;;;;;49.13;23.17;;;;;;;;;;4962896;28;20055;-73
2020/12/20 12:11:16;;;;;;;47.40;25.85;;;;;;;;;;4961701;28;20058;-73
2020/12/20 12:13:43;;;;;;;60.25;29.02;;;;;;;;;;4968129;28;20043;-73
2020/12/20 12:16:09;;;;;;;56.78;29.35;;;;;;;;;;4958454;28;20574;-73
2020/12/20 12:18:35;;;;;;;54.30;25.77;;;;;;;;;;4966807;28;20083;-72
2020/12/20 12:21:02;;;;;;;47.53;24.13;;;;;;;;;;4961666;28;20499;-73
2020/12/20 12:23:28;;;;;;;46.15;23.60;;;;;;;;;;4963640;28;20046;-73
2020/12/20 12:25:54;;;;;;;49.90;23.70;;;;;;;;;;4959405;28;20052;-73
2020/12/20 12:28:21;;;;;;;48.43;23.30;;;;;;;;;;4963248;28;20110;-73
2020/12/20 12:30:47;;;;;;;45.92;22.73;;;;;;;;;;4964045;28;20328;-73
2020/12/20 12:33:13;;;;;;;46.28;23.05;;;;;;;;;;4964083;28;20495;-73
2020/12/20 12:35:40;;;;;;;56.80;24.45;;;;;;;;;;4962481;28;20096;-73
2020/12/20 12:38:06;;;;;;;45.00;23.25;;;;;;;;;;4963401;28;20047;-73
2020/12/20 12:40:32;;;;;;;41.33;23.17;;;;;;;;;;4962268;28;20042;-72
2020/12/20 12:42:58;;;;;;;43.30;22.15;;;;;;;;;;4957662;28;20047;-73
2020/12/20 12:45:25;;;;;;;58.53;24.92;;;;;;;;;;4956043;28;20070;-73
2020/12/20 12:47:52;;;;;;;51.40;23.85;;;;;;;;;;4957872;28;20046;-73
2020/12/20 12:50:18;;;;;;;48.75;25.25;;;;;;;;;;4958118;28;20077;-73
2020/12/20 12:52:44;;;;;;;55.15;25.02;;;;;;;;;;4965256;28;20055;-73
2020/12/20 12:55:10;;;;;;;50.90;24.30;;;;;;;;;;4958766;28;20039;-73
2020/12/20 12:57:36;;;;;;;47.90;24.58;;;;;;;;;;4962895;28;20103;-73
2020/12/20 13:00:03;;;;;;;46.65;23.83;;;;;;;;;;4961963;28;20550;-73
2020/12/20 13:02:32;;;;;;;46.53;22.00;;;;;;;;;;4955445;28;20078;-73
2020/12/20 13:04:59;;;;;;;53.50;22.95;;;;;;;;;;4961862;28;20047;-73
2020/12/20 13:07:26;;;;;;;;;;;;;;;;;;4962344;28;20043;-72
2020/12/20 13:09:53;;;;;;;44.33;20.30;;;;;;;;;;4960268;28;19934;-72
2020/12/20 13:12:19;;;;;;;37.88;20.17;;;;;;;;;;4958117;28;20053;-72
2020/12/20 13:14:46;;;;;;;32.58;18.65;;;;;;;;;;4963905;28;20055;-72
2020/12/20 13:17:12;;;;;;;40.65;18.90;;;;;;;;;;4958027;28;20394;-72
2020/12/20 13:19:39;;;;;;;38.00;18.58;;;;;;;;;;4964884;28;20050;-72
2020/12/20 13:22:06;;;;;;;43.45;19.30;;;;;;;;;;4960430;28;20082;-72
2020/12/20 13:24:32;;;;;;;42.28;18.95;;;;;;;;;;4959042;28;20505;-73
2020/12/20 13:27:08;;;;;;;36.72;20.00;;;;;;;;;;4958777;28;20502;-73
2020/12/20 13:29:36;;;;;;;;;;;;;;;;;;4958280;28;20047;-73
2020/12/20 13:32:02;;;;;;;36.45;19.05;;;;;;;;;;4958834;28;20468;-73
2020/12/20 13:34:30;;;;;;;41.78;19.73;;;;;;;;;;4956930;28;20118;-73
2020/12/20 13:36:57;;;;;;;45.78;19.50;;;;;;;;;;4959174;28;20058;-73
2020/12/20 13:39:24;;;;;;;36.88;19.05;;;;;;;;;;4963471;28;20054;-73
2020/12/20 13:41:50;;;;;;;44.33;20.85;;;;;;;;;;4959748;28;20057;-73
2020/12/20 13:44:17;;;;;;;33.47;19.08;;;;;;;;;;4939103;28;20070;-73
2020/12/20 13:46:46;;;;;;;45.63;19.17;;;;;;;;;;4958052;28;20069;-72
2020/12/20 13:49:12;;;;;;;41.80;20.05;;;;;;;;;;4959411;28;20110;-73
2020/12/20 13:51:54;;;;;;;35.05;20.02;;;;;;;;;;4960024;28;20039;-73
2020/12/20 13:54:20;;;;;;;40.35;19.33;;;;;;;;;;4961585;28;20042;-73
2020/12/20 13:56:46;;;;;;;45.80;20.77;;;;;;;;;;4960767;28;20062;-73
2020/12/20 13:59:12;;;;;;;38.90;21.85;;;;;;;;;;4960750;28;20042;-72
2020/12/20 14:01:38;;;;;;;48.05;22.58;;;;;;;;;;4959737;28;20040;-73
2020/12/20 14:04:04;;;;;;;36.38;21.85;;;;;;;;;;4962115;28;20057;-73
2020/12/20 14:06:31;;;;;;;44.55;24.02;;;;;;;;;;4941120;29;20588;-72
2020/12/20 14:08:57;;;;;;;48.38;24.13;;;;;;;;;;4959441;28;20072;-72
2020/12/20 14:11:23;;;;;;;43.40;24.05;;;;;;;;;;4957259;28;20045;-73
2020/12/20 14:13:50;;;;;;;51.50;26.00;;;;;;;;;;4964311;28;20047;-72
2020/12/20 14:16:16;;;;;;;50.97;25.25;;;;;;;;;;4959236;28;20527;-72
2020/12/20 14:18:42;;;;;;;45.03;26.25;;;;;;;;;;4966505;28;20047;-72
2020/12/20 14:21:08;;;;;;;52.15;25.63;;;;;;;;;;4957505;28;20043;-72
2020/12/20 14:23:34;;;;;;;58.53;28.13;;;;;;;;;;4956753;28;20559;-72
2020/12/20 14:26:01;;;;;;;55.40;30.15;;;;;;;;;;4964095;28;20490;-73
2020/12/20 14:28:27;;;;;;;60.30;30.95;;;;;;;;;;4949944;28;20458;-72
2020/12/20 14:30:53;;;;;;;65.60;29.88;;;;;;;;;;4960124;28;20065;-72
2020/12/20 14:33:19;;;;;;;63.30;30.25;;;;;;;;;;4966610;28;20456;-73